Terminal Aerodrome Forecast
Issued by NWS

Home | Current Version | Previous Version | Text Only | Print | Product List | Glossary Off
Versions: 1 2 3 4 5 6 7 8 9 10 11 12

000
FTUS43 KDVN 282320
TAFBRL
TAF
KBRL 282320Z 2900/2924 16012KT P6SM BKN120
     FM290100 14009KT P6SM VCSH OVC060
      TEMPO 2902/2904 5SM SHRA OVC040
     FM290900 17005KT 4SM BR VCSH OVC030
     FM291200 VRB03KT 3SM BR SCT010 OVC020
     FM291600 18006KT P6SM BKN025=

USA.gov is the U.S. government's official web portal to all federal, state and local government web resources and services.